createdAt,value
2018-11-01T00:02:15.899Z,5.20
2018-11-01T00:04:44.682Z,6.10
2018-11-01T00:07:13.563Z,6.37
2018-11-01T00:09:42.090Z,7.30
2018-11-01T00:12:10.812Z,6.77
2018-11-01T00:14:39.462Z,5.90
2018-11-01T00:17:08.138Z,6.87
2018-11-01T00:19:37.314Z,6.40
2018-11-01T00:22:06.150Z,6.67
2018-11-01T00:24:34.995Z,5.53
2018-11-01T00:27:03.750Z,5.63
2018-11-01T00:29:32.586Z,5.33
2018-11-01T00:32:01.412Z,6.13
2018-11-01T00:34:30.077Z,5.27
2018-11-01T00:36:58.762Z,8.40
2018-11-01T00:39:27.427Z,7.33
2018-11-01T00:41:56.155Z,6.20
2018-11-01T00:44:24.897Z,5.13
2018-11-01T00:46:53.554Z,6.73
2018-11-01T00:49:22.141Z,6.10
2018-11-01T00:51:50.855Z,6.80
2018-11-01T00:54:19.582Z,5.00
2018-11-01T00:56:48.338Z,6.33
2018-11-01T00:59:17.130Z,6.00
2018-11-01T01:01:49.679Z,6.07
2018-11-01T01:04:18.508Z,6.20
2018-11-01T01:06:50.135Z,7.43
2018-11-01T01:09:18.850Z,6.63
2018-11-01T01:11:47.691Z,7.17
2018-11-01T01:14:16.526Z,7.30
2018-11-01T01:16:45.430Z,5.90
2018-11-01T01:19:14.159Z,5.70
2018-11-01T01:21:42.824Z,6.53
2018-11-01T01:24:11.635Z,6.57
2018-11-01T01:26:40.337Z,6.00
2018-11-01T01:29:11.292Z,5.33
2018-11-01T01:31:39.962Z,6.20
2018-11-01T01:34:08.619Z,6.00
2018-11-01T01:36:37.145Z,6.77
2018-11-01T01:39:08.238Z,6.43
2018-11-01T01:41:37.258Z,7.00
2018-11-01T01:44:06.206Z,5.93
2018-11-01T01:46:36.198Z,5.80
2018-11-01T01:49:05.791Z,5.50
2018-11-01T01:51:34.657Z,4.40
2018-11-01T01:54:03.326Z,6.50
2018-11-01T01:56:32.171Z,5.87
2018-11-01T01:59:01.949Z,5.77
2018-11-01T02:01:30.596Z,6.20
2018-11-01T02:03:59.181Z,5.83
2018-11-01T02:06:27.826Z,4.47
2018-11-01T02:08:56.595Z,5.40
2018-11-01T02:11:25.220Z,6.73
2018-11-01T02:13:53.971Z,5.20
2018-11-01T02:16:22.565Z,5.57
2018-11-01T02:18:51.314Z,5.57
2018-11-01T02:21:19.944Z,6.10
2018-11-01T02:23:48.588Z,4.50
2018-11-01T02:26:17.212Z,4.53
2018-11-01T02:28:45.799Z,3.63
2018-11-01T02:31:14.544Z,3.70
2018-11-01T02:33:43.173Z,4.70
2018-11-01T02:36:11.820Z,4.70
2018-11-01T02:38:40.747Z,4.37
2018-11-01T02:41:09.314Z,3.90
2018-11-01T02:43:37.877Z,3.37
2018-11-01T02:46:06.625Z,4.43
2018-11-01T02:48:35.304Z,4.53
2018-11-01T02:51:03.856Z,4.20
2018-11-01T02:53:32.736Z,4.00
2018-11-01T02:56:01.408Z,4.30
2018-11-01T02:58:30.104Z,4.00
2018-11-01T03:00:58.814Z,4.03
2018-11-01T03:03:27.456Z,3.27
2018-11-01T03:05:55.991Z,3.90
2018-11-01T03:08:24.638Z,2.90
2018-11-01T03:10:53.186Z,4.43
2018-11-01T03:13:21.755Z,3.57
2018-11-01T03:15:50.407Z,3.27
2018-11-01T03:18:19.053Z,3.67
2018-11-01T03:20:47.691Z,3.30
2018-11-01T03:23:16.392Z,3.60
2018-11-01T03:25:44.977Z,3.93
2018-11-01T03:28:13.745Z,3.80
2018-11-01T03:30:42.474Z,3.50
2018-11-01T03:33:11.072Z,3.87
2018-11-01T03:35:39.846Z,3.47
2018-11-01T03:38:08.557Z,4.07
2018-11-01T03:40:37.114Z,3.63
2018-11-01T03:43:05.740Z,4.17
2018-11-01T03:45:34.379Z,3.70
2018-11-01T03:48:03.099Z,4.60
2018-11-01T03:50:31.796Z,4.00
2018-11-01T03:53:00.336Z,3.60
2018-11-01T03:55:28.960Z,4.57
2018-11-01T03:57:57.590Z,3.90
2018-11-01T04:00:26.175Z,4.70
2018-11-01T04:02:54.946Z,4.47
2018-11-01T04:05:23.574Z,4.33
2018-11-01T04:07:52.142Z,4.37
2018-11-01T04:10:20.769Z,4.00
2018-11-01T04:12:49.317Z,4.30
2018-11-01T04:15:18.170Z,4.40
2018-11-01T04:17:46.750Z,5.37
2018-11-01T04:20:15.383Z,4.10
2018-11-01T04:22:44.326Z,5.53
2018-11-01T04:25:13.559Z,4.40
2018-11-01T04:27:42.282Z,4.63
2018-11-01T04:30:10.958Z,4.00
2018-11-01T04:32:39.504Z,3.33
2018-11-01T04:35:08.763Z,4.87
2018-11-01T04:37:37.357Z,5.00
2018-11-01T04:40:07.032Z,3.73
2018-11-01T04:42:35.672Z,5.00
2018-11-01T04:45:04.337Z,5.00
2018-11-01T04:47:32.960Z,4.60
2018-11-01T04:50:01.467Z,4.77
2018-11-01T04:52:30.111Z,4.03
2018-11-01T04:54:58.711Z,4.70
2018-11-01T04:57:27.259Z,4.80
2018-11-01T04:59:55.825Z,4.00
2018-11-01T05:02:24.523Z,3.97
2018-11-01T05:04:53.118Z,4.77
2018-11-01T05:07:21.600Z,4.90
2018-11-01T05:09:50.330Z,4.93
2018-11-01T05:12:19.019Z,4.33
2018-11-01T05:14:47.577Z,4.97
2018-11-01T05:17:16.216Z,5.50
2018-11-01T05:19:44.787Z,4.67
2018-11-01T05:22:13.520Z,4.93
2018-11-01T05:24:42.365Z,4.40
2018-11-01T05:27:11.082Z,5.40
2018-11-01T05:29:39.891Z,5.00
2018-11-01T05:32:08.478Z,4.90
2018-11-01T05:34:37.016Z,5.10
2018-11-01T05:37:06.135Z,4.13
2018-11-01T05:39:34.784Z,4.73
2018-11-01T05:42:03.475Z,5.27
2018-11-01T05:44:32.071Z,5.13
2018-11-01T05:47:00.802Z,4.70
2018-11-01T05:49:29.578Z,4.90
2018-11-01T05:51:58.111Z,4.53
2018-11-01T05:54:26.965Z,3.80
2018-11-01T05:56:55.613Z,5.23
2018-11-01T05:59:24.304Z,4.63
2018-11-01T06:01:55.987Z,3.97
2018-11-01T06:04:24.709Z,4.10
2018-11-01T06:06:53.466Z,4.30
2018-11-01T06:09:27.431Z,3.93
2018-11-01T06:11:56.077Z,4.80
2018-11-01T06:14:24.619Z,4.67
2018-11-01T06:16:53.360Z,4.33
2018-11-01T06:19:21.917Z,4.47
2018-11-01T06:21:50.551Z,5.00
2018-11-01T06:24:19.043Z,4.97
2018-11-01T06:26:47.702Z,3.67
2018-11-01T06:29:16.268Z,4.50
2018-11-01T06:31:45.076Z,5.20
2018-11-01T06:34:18.996Z,5.00
2018-11-01T06:36:47.780Z,4.60
2018-11-01T06:39:20.567Z,5.30
2018-11-01T06:41:50.705Z,4.80
2018-11-01T06:44:19.408Z,4.13
2018-11-01T06:46:48.584Z,5.13
2018-11-01T06:49:18.356Z,5.83
2018-11-01T06:51:47.080Z,5.27
2018-11-01T06:54:16.041Z,7.10
2018-11-01T06:56:44.679Z,5.80
2018-11-01T06:59:13.514Z,4.97
2018-11-01T07:01:42.080Z,5.30
2018-11-01T07:04:10.790Z,5.07
2018-11-01T07:06:39.428Z,6.07
2018-11-01T07:09:11.139Z,6.03
2018-11-01T07:11:39.919Z,5.97
2018-11-01T07:14:09.660Z,5.67
2018-11-01T07:16:38.374Z,4.60
2018-11-01T07:19:07.176Z,5.30
2018-11-01T07:21:35.775Z,6.00
2018-11-01T07:24:04.553Z,5.67
2018-11-01T07:26:33.224Z,6.00
2018-11-01T07:29:01.913Z,6.00
2018-11-01T07:31:30.598Z,5.90
2018-11-01T07:33:59.256Z,6.30
2018-11-01T07:36:27.990Z,4.93
2018-11-01T07:38:56.665Z,6.13
2018-11-01T07:41:25.488Z,5.63
2018-11-01T07:43:54.216Z,5.37
2018-11-01T07:46:22.946Z,5.40
2018-11-01T07:48:51.662Z,6.33
2018-11-01T07:51:20.317Z,6.67
2018-11-01T07:53:48.971Z,6.80
2018-11-01T07:56:17.746Z,7.03
2018-11-01T07:58:46.368Z,8.27
2018-11-01T08:01:15.179Z,8.60
2018-11-01T08:03:43.881Z,7.50
2018-11-01T08:06:12.596Z,6.63
2018-11-01T08:08:41.252Z,7.23
2018-11-01T08:11:10.005Z,7.10
2018-11-01T08:13:38.848Z,6.47
2018-11-01T08:16:07.898Z,6.10
2018-11-01T08:18:36.580Z,6.50
2018-11-01T08:21:05.912Z,6.00
2018-11-01T08:23:34.552Z,5.43
2018-11-01T08:26:03.271Z,6.00
2018-11-01T08:28:31.950Z,5.80
2018-11-01T08:31:00.564Z,6.90
2018-11-01T08:33:29.184Z,6.20
2018-11-01T08:35:57.947Z,5.70
2018-11-01T08:38:26.582Z,4.50
2018-11-01T08:40:55.319Z,5.93
2018-11-01T08:43:24.023Z,6.20
2018-11-01T08:45:52.735Z,4.30
2018-11-01T08:48:21.427Z,4.70
2018-11-01T08:50:50.163Z,5.50
2018-11-01T08:53:18.806Z,6.40
2018-11-01T08:55:47.562Z,4.93
2018-11-01T08:58:16.176Z,5.70
2018-11-01T09:00:44.772Z,5.57
2018-11-01T09:03:14.862Z,5.60
2018-11-01T09:05:43.503Z,4.93
2018-11-01T09:08:12.304Z,5.30
2018-11-01T09:10:40.949Z,5.40
2018-11-01T09:13:09.500Z,5.07
2018-11-01T09:15:38.200Z,5.67
2018-11-01T09:18:07.121Z,4.63
2018-11-01T09:20:35.752Z,4.10
2018-11-01T09:23:04.439Z,3.53
2018-11-01T09:25:33.157Z,4.03
2018-11-01T09:28:01.823Z,4.67
2018-11-01T09:30:30.538Z,4.70
2018-11-01T09:32:59.236Z,4.53
2018-11-01T09:35:27.988Z,4.37
2018-11-01T09:37:56.645Z,4.07
2018-11-01T09:40:25.405Z,4.50
2018-11-01T09:42:54.995Z,4.90
2018-11-01T09:45:23.747Z,5.10
2018-11-01T09:47:52.516Z,4.30
2018-11-01T09:50:21.246Z,4.00
2018-11-01T09:52:49.822Z,4.47
2018-11-01T09:55:18.594Z,3.33
2018-11-01T09:57:47.322Z,4.70
2018-11-01T10:00:16.032Z,4.50
2018-11-01T10:02:44.712Z,4.60
2018-11-01T10:05:13.461Z,4.23
2018-11-01T10:07:42.051Z,3.83
2018-11-01T10:10:12.103Z,3.70
2018-11-01T10:12:41.100Z,4.03
2018-11-01T10:15:10.714Z,3.90
2018-11-01T10:17:39.800Z,4.80
2018-11-01T10:20:09.962Z,3.90
2018-11-01T10:22:38.841Z,3.90
2018-11-01T10:25:08.750Z,4.00
2018-11-01T10:27:38.098Z,4.93
2018-11-01T10:30:13.885Z,4.17
2018-11-01T10:32:43.235Z,4.70
2018-11-01T10:35:12.059Z,4.20
2018-11-01T10:37:41.062Z,4.03
2018-11-01T10:40:12.932Z,4.83
2018-11-01T10:42:41.787Z,4.77
2018-11-01T10:45:11.126Z,4.50
2018-11-01T10:47:40.117Z,4.80
2018-11-01T10:50:16.762Z,4.77
2018-11-01T10:52:45.452Z,3.60
2018-11-01T10:55:14.383Z,4.70
2018-11-01T10:57:43.340Z,4.80
2018-11-01T11:00:17.722Z,4.10
2018-11-01T11:02:47.420Z,4.50
2018-11-01T11:05:17.226Z,4.43
2018-11-01T11:07:46.155Z,5.50
2018-11-01T11:10:15.121Z,4.00
2018-11-01T11:12:43.822Z,5.83
2018-11-01T11:15:12.406Z,3.80
2018-11-01T11:17:41.155Z,5.00
2018-11-01T11:20:11.044Z,4.83
2018-11-01T11:22:39.647Z,4.40
2018-11-01T11:25:10.451Z,5.00
2018-11-01T11:27:42.724Z,4.73
2018-11-01T11:30:12.210Z,4.30
2018-11-01T11:32:40.931Z,4.83
2018-11-01T11:35:10.383Z,5.63
2018-11-01T11:37:39.092Z,5.00
2018-11-01T11:40:09.326Z,5.53
2018-11-01T11:42:38.250Z,3.83
2018-11-01T11:45:08.149Z,5.70
2018-11-01T11:47:37.092Z,5.37
2018-11-01T11:50:06.975Z,4.83
2018-11-01T11:52:35.651Z,5.30
2018-11-01T11:55:04.289Z,4.43
2018-11-01T11:57:33.367Z,4.10
2018-11-01T12:00:02.213Z,4.40
2018-11-01T12:02:31.049Z,5.13
2018-11-01T12:04:59.732Z,4.40
2018-11-01T12:07:28.333Z,5.20
2018-11-01T12:09:57.051Z,4.83
2018-11-01T12:12:25.734Z,4.80
2018-11-01T12:14:54.339Z,4.17
2018-11-01T12:17:23.056Z,4.80
2018-11-01T12:19:51.773Z,5.50
2018-11-01T12:22:20.433Z,4.70
2018-11-01T12:24:49.055Z,4.00
2018-11-01T12:27:17.751Z,4.60
2018-11-01T12:29:46.487Z,5.10
2018-11-01T12:32:15.232Z,4.67
2018-11-01T12:34:43.838Z,5.03
2018-11-01T12:37:12.459Z,4.70
2018-11-01T12:39:41.239Z,3.63
2018-11-01T12:42:09.935Z,4.77
2018-11-01T12:44:38.740Z,3.97
2018-11-01T12:47:07.328Z,4.60
2018-11-01T12:49:36.122Z,4.00
2018-11-01T12:52:04.741Z,4.03
2018-11-01T12:54:33.532Z,3.70
2018-11-01T12:57:02.239Z,5.23
2018-11-01T12:59:31.007Z,5.27
2018-11-01T13:02:02.748Z,4.60
2018-11-01T13:04:31.388Z,3.93
2018-11-01T13:07:00.199Z,4.93
2018-11-01T13:09:28.888Z,4.73
2018-11-01T13:11:57.675Z,4.80
2018-11-01T13:14:26.287Z,3.93
2018-11-01T13:16:55.020Z,4.80
2018-11-01T13:19:23.824Z,5.40
2018-11-01T13:21:52.428Z,4.73
2018-11-01T13:24:21.075Z,4.67
2018-11-01T13:26:49.867Z,5.20
2018-11-01T13:29:18.663Z,4.70
2018-11-01T13:31:47.290Z,5.67
2018-11-01T13:34:15.936Z,4.10
2018-11-01T13:36:44.690Z,5.77
2018-11-01T13:39:13.343Z,4.40
2018-11-01T13:41:42.078Z,5.30
2018-11-01T13:44:10.731Z,6.00
2018-11-01T13:46:39.423Z,5.70
2018-11-01T13:49:08.107Z,5.63
2018-11-01T13:51:37.137Z,6.00
2018-11-01T13:54:06.212Z,5.47
2018-11-01T13:56:34.840Z,5.67
2018-11-01T13:59:03.477Z,4.87
2018-11-01T14:01:32.059Z,4.90
2018-11-01T14:04:00.659Z,6.50
2018-11-01T14:06:29.395Z,4.40
2018-11-01T14:08:58.075Z,5.40
2018-11-01T14:11:26.790Z,4.90
2018-11-01T14:13:55.613Z,5.40
2018-11-01T14:16:24.155Z,5.90
2018-11-01T14:18:52.779Z,6.17
2018-11-01T14:21:21.608Z,6.63
2018-11-01T14:23:50.197Z,5.00
2018-11-01T14:26:18.936Z,6.03
2018-11-01T14:28:47.604Z,5.13
2018-11-01T14:31:16.514Z,6.20
2018-11-01T14:33:44.952Z,7.23
2018-11-01T14:36:13.571Z,8.10
2018-11-01T14:38:42.287Z,7.17
2018-11-01T14:41:11.007Z,7.10
2018-11-01T14:43:39.653Z,7.97
2018-11-01T14:46:08.328Z,8.10
2018-11-01T14:48:37.061Z,7.13
2018-11-01T14:51:05.804Z,6.60
2018-11-01T14:53:34.770Z,7.23
2018-11-01T14:56:04.322Z,7.70
2018-11-01T14:58:32.891Z,7.60
2018-11-01T15:01:00.907Z,8.90
2018-11-01T15:03:29.556Z,6.97
2018-11-01T15:05:58.300Z,8.73
2018-11-01T15:08:26.967Z,6.73
2018-11-01T15:10:55.564Z,9.67
2018-11-01T15:13:24.665Z,8.07
2018-11-01T15:15:53.475Z,8.43
2018-11-01T15:18:22.255Z,7.80
2018-11-01T15:20:50.876Z,9.20
2018-11-01T15:23:19.603Z,10.83
2018-11-01T15:25:48.355Z,8.63
2018-11-01T15:28:16.979Z,9.80
2018-11-01T15:30:45.751Z,8.27
2018-11-01T15:33:14.656Z,8.07
2018-11-01T15:35:43.322Z,9.50
2018-11-01T15:38:12.450Z,9.50
2018-11-01T15:40:41.154Z,8.43
2018-11-01T15:43:09.835Z,9.07
2018-11-01T15:45:38.525Z,10.30
2018-11-01T15:48:07.311Z,9.97
2018-11-01T15:50:36.852Z,8.63
2018-11-01T15:53:05.888Z,9.17
2018-11-01T15:55:34.650Z,9.53
2018-11-01T15:58:03.405Z,10.53
2018-11-01T16:00:32.027Z,9.20
2018-11-01T16:03:00.758Z,10.87
2018-11-01T16:05:29.497Z,10.63
2018-11-01T16:07:58.167Z,9.23
2018-11-01T16:10:27.081Z,10.70
2018-11-01T16:12:55.808Z,10.10
2018-11-01T16:15:24.546Z,9.40
2018-11-01T16:17:53.244Z,9.70
2018-11-01T16:20:21.946Z,11.30
2018-11-01T16:22:50.679Z,9.90
2018-11-01T16:25:19.342Z,8.43
2018-11-01T16:27:48.093Z,10.60
2018-11-01T16:30:16.785Z,8.40
2018-11-01T16:32:45.419Z,11.63
2018-11-01T16:35:14.107Z,9.90
2018-11-01T16:37:42.752Z,9.97
2018-11-01T16:40:12.531Z,11.03
2018-11-01T16:42:41.348Z,11.00
2018-11-01T16:45:12.380Z,11.30
2018-11-01T16:47:41.060Z,11.23
2018-11-01T16:50:10.164Z,12.47
2018-11-01T16:52:39.841Z,9.73
2018-11-01T16:55:08.503Z,8.67
2018-11-01T16:57:37.138Z,9.63
2018-11-01T17:00:08.970Z,10.13
2018-11-01T17:02:37.930Z,10.43
2018-11-01T17:05:07.140Z,9.53
2018-11-01T17:07:35.792Z,8.67
2018-11-01T17:10:04.865Z,9.77
2018-11-01T17:12:33.461Z,9.97
2018-11-01T17:15:02.124Z,11.83
2018-11-01T17:17:30.846Z,9.30
2018-11-01T17:19:59.605Z,11.33
2018-11-01T17:22:28.269Z,9.10
2018-11-01T17:24:56.843Z,8.80
2018-11-01T17:27:25.508Z,9.50
2018-11-01T17:29:54.219Z,8.97
2018-11-01T17:32:23.050Z,9.23
2018-11-01T17:34:51.787Z,10.70
2018-11-01T17:37:20.558Z,9.60
2018-11-01T17:39:49.235Z,8.60
2018-11-01T17:42:17.972Z,10.10
2018-11-01T17:44:46.712Z,9.77
2018-11-01T17:47:15.504Z,9.03
2018-11-01T17:49:44.255Z,10.43
2018-11-01T17:52:12.910Z,11.47
2018-11-01T17:54:41.534Z,10.60
2018-11-01T17:57:10.294Z,10.07
2018-11-01T17:59:39.073Z,10.77
2018-11-01T18:02:07.881Z,9.60
2018-11-01T18:04:36.592Z,10.70
2018-11-01T18:07:05.535Z,10.57
2018-11-01T18:09:34.197Z,10.50
2018-11-01T18:12:02.877Z,11.73
2018-11-01T18:14:31.866Z,11.80
2018-11-01T18:17:00.608Z,11.47
2018-11-01T18:19:29.558Z,11.60
2018-11-01T18:21:58.440Z,14.00
2018-11-01T18:24:27.184Z,12.00
2018-11-01T18:26:55.965Z,11.33
2018-11-01T18:29:25.042Z,11.60
2018-11-01T18:31:54.076Z,12.27
2018-11-01T18:34:23.422Z,12.00
2018-11-01T18:36:52.543Z,12.70
2018-11-01T18:39:22.662Z,12.17
2018-11-01T18:41:51.593Z,11.53
2018-11-01T18:44:20.624Z,13.67
2018-11-01T18:46:49.550Z,11.77
2018-11-01T18:49:18.561Z,12.00
2018-11-01T18:51:47.721Z,12.47
2018-11-01T18:54:16.856Z,14.57
2018-11-01T18:56:45.925Z,12.97
2018-11-01T18:59:14.925Z,14.00
2018-11-01T19:01:43.910Z,11.80
2018-11-01T19:04:12.985Z,14.23
2018-11-01T19:06:41.936Z,15.77
2018-11-01T19:09:11.382Z,15.27
2018-11-01T19:11:40.445Z,14.70
2018-11-01T19:14:09.558Z,13.27
2018-11-01T19:16:38.354Z,15.20
2018-11-01T19:19:08.388Z,15.80
2018-11-01T19:21:37.276Z,16.63
2018-11-01T19:24:06.218Z,13.60
2018-11-01T19:26:35.184Z,13.07
2018-11-01T19:29:04.272Z,12.50
2018-11-01T19:31:33.183Z,14.27
2018-11-01T19:34:02.183Z,15.20
2018-11-01T19:36:31.166Z,17.57
2018-11-01T19:39:00.175Z,13.63
2018-11-01T19:41:28.902Z,12.93
2018-11-01T19:43:57.924Z,13.70
2018-11-01T19:46:27.065Z,12.63
2018-11-01T19:48:56.064Z,11.47
2018-11-01T19:51:24.991Z,13.40
2018-11-01T19:53:54.539Z,13.00
2018-11-01T19:56:23.591Z,12.50
2018-11-01T19:58:52.458Z,12.20
2018-11-01T20:01:21.160Z,12.90
2018-11-01T20:03:50.053Z,11.83
2018-11-01T20:06:19.083Z,12.50
2018-11-01T20:08:47.996Z,13.87
2018-11-01T20:11:16.874Z,13.60
2018-11-01T20:13:45.644Z,11.07
2018-11-01T20:16:14.620Z,11.80
2018-11-01T20:18:43.678Z,10.83
2018-11-01T20:21:12.590Z,12.00
2018-11-01T20:23:41.410Z,13.37
2018-11-01T20:26:10.417Z,10.57
2018-11-01T20:28:39.328Z,12.00
2018-11-01T20:31:08.870Z,10.00
2018-11-01T20:33:37.793Z,12.87
2018-11-01T20:36:07.802Z,12.43
2018-11-01T20:38:36.836Z,10.33
2018-11-01T20:41:06.180Z,11.17
2018-11-01T20:43:34.874Z,10.90
2018-11-01T20:46:03.901Z,11.53
2018-11-01T20:48:33.001Z,8.17
2018-11-01T20:51:01.870Z,11.07
2018-11-01T20:53:30.602Z,11.20
2018-11-01T20:55:59.558Z,10.90
2018-11-01T20:58:28.298Z,10.47
2018-11-01T21:00:57.107Z,11.50
2018-11-01T21:03:25.842Z,10.73
2018-11-01T21:05:54.768Z,10.27
2018-11-01T21:08:23.594Z,11.07
2018-11-01T21:10:52.418Z,10.60
2018-11-01T21:13:20.932Z,9.67
2018-11-01T21:15:49.631Z,10.07
2018-11-01T21:18:18.390Z,12.00
2018-11-01T21:20:47.114Z,10.30
2018-11-01T21:23:16.052Z,10.13
2018-11-01T21:25:44.672Z,10.00
2018-11-01T21:28:13.461Z,10.30
2018-11-01T21:30:42.090Z,10.07
2018-11-01T21:33:11.219Z,11.53
2018-11-01T21:35:40.008Z,10.83
2018-11-01T21:38:08.760Z,9.03
2018-11-01T21:40:37.489Z,7.97
2018-11-01T21:43:06.259Z,9.80
2018-11-01T21:45:35.007Z,11.07
2018-11-01T21:48:03.768Z,10.77
2018-11-01T21:50:32.612Z,8.73
2018-11-01T21:53:01.339Z,9.60
2018-11-01T21:55:30.059Z,10.37
2018-11-01T21:57:58.771Z,10.13
2018-11-01T22:00:27.395Z,7.97
2018-11-01T22:02:56.115Z,9.63
2018-11-01T22:05:25.850Z,9.67
2018-11-01T22:07:54.554Z,11.03
2018-11-01T22:10:23.294Z,8.57
2018-11-01T22:12:52.115Z,9.60
2018-11-01T22:15:20.726Z,10.77
2018-11-01T22:17:49.378Z,10.30
2018-11-01T22:20:18.000Z,9.67
2018-11-01T22:22:46.740Z,10.20
2018-11-01T22:25:15.489Z,8.87
2018-11-01T22:27:44.255Z,10.83
2018-11-01T22:30:12.964Z,9.50
2018-11-01T22:32:42.552Z,11.00
2018-11-01T22:35:11.778Z,11.50
2018-11-01T22:37:41.484Z,11.10
2018-11-01T22:40:10.311Z,11.23
2018-11-01T22:42:39.151Z,9.90
2018-11-01T22:45:09.486Z,9.83
2018-11-01T22:47:38.184Z,9.50
2018-11-01T22:50:07.901Z,11.47
2018-11-01T22:52:36.769Z,10.70
2018-11-01T22:55:07.117Z,10.07
2018-11-01T22:57:35.888Z,11.43
2018-11-01T23:00:05.697Z,11.57
2018-11-01T23:02:34.310Z,11.57
2018-11-01T23:05:03.070Z,12.40
2018-11-01T23:07:31.727Z,11.73
2018-11-01T23:10:00.455Z,11.30
2018-11-01T23:12:29.097Z,10.80
2018-11-01T23:14:57.775Z,12.30
2018-11-01T23:17:26.506Z,11.37
2018-11-01T23:19:55.397Z,11.30
2018-11-01T23:22:24.001Z,12.53
2018-11-01T23:24:52.781Z,14.17
2018-11-01T23:27:21.495Z,12.90
2018-11-01T23:29:50.203Z,13.90
2018-11-01T23:32:19.447Z,13.13
2018-11-01T23:34:48.323Z,15.23
2018-11-01T23:37:22.303Z,14.87
2018-11-01T23:39:56.219Z,13.90
2018-11-01T23:42:30.157Z,14.93
2018-11-01T23:45:04.114Z,15.50
2018-11-01T23:47:38.210Z,16.60
2018-11-01T23:51:18.211Z,13.07
2018-11-01T23:53:50.028Z,14.00
2018-11-01T23:56:19.246Z,15.13
2018-11-01T23:58:48.024Z,14.70
